Time;durP1;ratioP1;P1;durP2;ratioP2;P2;SDS_P1;SDS_P2;PMS_P1;PMS_P2;Temp;Humidity;BMP_temperature;BMP_pressure;BME280_temperature;BME280_humidity;BME280_pressure;Samples;Min_cycle;Max_cycle;Signal;HPM_P1;HPM_P2
2021/09/20 00:01:37;;;;;;;21.80;12.57;;;8.80;99.90;;;;;;4970528;28;20126;-75
2021/09/20 00:04:04;;;;;;;20.33;12.70;;;8.70;99.90;;;;;;4987480;28;20391;-74
2021/09/20 00:06:31;;;;;;;24.45;13.82;;;8.60;99.90;;;;;;4990130;28;20077;-74
2021/09/20 00:08:58;;;;;;;20.88;11.80;;;8.50;99.90;;;;;;4984708;28;20789;-74
2021/09/20 00:11:25;;;;;;;20.52;12.48;;;8.50;99.90;;;;;;4954511;28;20050;-78
2021/09/20 00:13:52;;;;;;;20.92;12.90;;;8.40;99.90;;;;;;4987731;28;20101;-75
2021/09/20 00:16:19;;;;;;;19.83;12.35;;;8.30;99.90;;;;;;4987053;28;20046;-75
2021/09/20 00:18:46;;;;;;;23.65;13.48;;;8.20;99.90;;;;;;4970413;28;20201;-75
2021/09/20 00:21:13;;;;;;;25.35;12.32;;;8.10;99.90;;;;;;4986780;28;20050;-75
2021/09/20 00:23:39;;;;;;;20.80;14.32;;;8.10;99.90;;;;;;4986726;28;20058;-77
2021/09/20 00:26:06;;;;;;;19.70;12.25;;;8.10;99.90;;;;;;4987295;28;20112;-75
2021/09/20 00:28:33;;;;;;;23.23;13.65;;;8.00;99.90;;;;;;4988103;28;20116;-77
2021/09/20 00:31:00;;;;;;;22.80;12.95;;;7.70;99.90;;;;;;4969383;28;20566;-77
2021/09/20 00:33:27;;;;;;;23.35;13.45;;;7.70;99.90;;;;;;4986456;28;20057;-75
2021/09/20 00:35:54;;;;;;;22.08;12.57;;;7.70;99.90;;;;;;4986595;28;20506;-75
2021/09/20 00:38:20;;;;;;;19.80;12.57;;;7.70;99.90;;;;;;4984525;28;20616;-74
2021/09/20 00:40:47;;;;;;;18.65;11.85;;;7.60;99.90;;;;;;4985952;28;20050;-74
2021/09/20 00:43:14;;;;;;;17.13;11.02;;;7.50;99.90;;;;;;4986832;28;20585;-78
2021/09/20 00:45:41;;;;;;;23.38;13.07;;;7.40;99.90;;;;;;4987677;28;20124;-75
2021/09/20 00:48:08;;;;;;;20.52;12.35;;;7.20;99.90;;;;;;4985710;28;20123;-75
2021/09/20 00:50:36;;;;;;;24.23;12.85;;;7.20;99.90;;;;;;4986299;28;20574;-74
2021/09/20 00:53:03;;;;;;;21.92;12.52;;;7.10;99.90;;;;;;4981823;28;20050;-75
2021/09/20 00:55:33;;;;;;;20.05;12.25;;;6.90;99.90;;;;;;4989098;28;20454;-75
2021/09/20 00:58:00;;;;;;;18.42;11.32;;;6.90;99.90;;;;;;5002416;28;20404;-75
2021/09/20 01:00:27;;;;;;;22.02;12.75;;;6.80;99.90;;;;;;4987139;28;20077;-77
2021/09/20 01:02:54;;;;;;;23.75;13.95;;;6.70;99.90;;;;;;4977727;28;20539;-75
2021/09/20 01:05:21;;;;;;;21.25;12.80;;;6.70;99.90;;;;;;4984559;28;20113;-77
2021/09/20 01:07:47;;;;;;;19.65;13.40;;;6.70;99.90;;;;;;4966320;28;20058;-75
2021/09/20 01:10:14;;;;;;;23.15;13.90;;;6.80;99.90;;;;;;4965317;28;20062;-75
2021/09/20 01:12:41;;;;;;;23.38;13.05;;;6.80;99.90;;;;;;4979926;28;20061;-75
2021/09/20 01:15:08;;;;;;;19.40;12.20;;;6.90;99.90;;;;;;4984870;28;20116;-74
2021/09/20 01:17:35;;;;;;;21.50;11.68;;;6.90;99.90;;;;;;4994844;28;20303;-78
2021/09/20 01:20:04;;;;;;;26.65;13.75;;;6.90;99.90;;;;;;4987549;28;20081;-77
2021/09/20 01:22:32;;;;;;;21.77;12.88;;;7.00;99.90;;;;;;4986267;28;20088;-74
2021/09/20 01:24:58;;;;;;;21.30;13.27;;;7.00;99.90;;;;;;4986389;28;20089;-74
2021/09/20 01:27:25;;;;;;;26.48;14.07;;;7.00;99.90;;;;;;4969722;28;20058;-77
2021/09/20 01:29:52;;;;;;;21.63;12.57;;;7.10;99.90;;;;;;4985327;28;20050;-77
2021/09/20 01:32:19;;;;;;;21.40;12.98;;;7.00;99.90;;;;;;4986777;28;20054;-76
2021/09/20 01:34:45;;;;;;;26.02;12.68;;;7.10;99.90;;;;;;4986668;28;20442;-76
2021/09/20 01:37:12;;;;;;;21.40;13.15;;;7.20;99.90;;;;;;4968425;28;20116;-77
2021/09/20 01:39:39;;;;;;;21.00;13.35;;;7.20;99.90;;;;;;4969144;28;20054;-75
2021/09/20 01:42:07;;;;;;;21.65;13.13;;;7.10;99.90;;;;;;4984794;28;20135;-77
2021/09/20 01:44:35;;;;;;;21.20;12.82;;;7.30;99.90;;;;;;5004676;28;20045;-75
2021/09/20 01:47:03;;;;;;;20.30;13.15;;;7.30;99.90;;;;;;5004182;28;20046;-74
2021/09/20 01:49:30;;;;;;;23.27;13.63;;;7.30;99.90;;;;;;5006726;28;20050;-74
2021/09/20 01:51:57;;;;;;;25.83;14.07;;;7.20;99.90;;;;;;4991229;28;20459;-77
2021/09/20 01:54:25;;;;;;;28.67;13.80;;;7.20;99.90;;;;;;4986223;28;20068;-75
2021/09/20 01:56:52;;;;;;;23.95;14.18;;;7.20;99.90;;;;;;4985513;28;20093;-74
2021/09/20 01:59:19;;;;;;;19.02;12.07;;;7.10;99.90;;;;;;4985540;28;20491;-74
2021/09/20 02:01:46;;;;;;;24.77;13.43;;;7.20;99.90;;;;;;4984902;28;20295;-75
2021/09/20 02:04:13;;;;;;;23.73;13.18;;;7.40;99.90;;;;;;5001342;28;20053;-75
2021/09/20 02:06:40;;;;;;;25.10;13.52;;;7.50;99.90;;;;;;4993391;28;20074;-75
2021/09/20 02:09:10;;;;;;;22.77;12.40;;;7.60;99.90;;;;;;4966919;28;20054;-75
2021/09/20 02:11:39;;;;;;;23.92;13.00;;;7.60;99.90;;;;;;4984008;28;20450;-75
2021/09/20 02:14:06;;;;;;;21.70;12.40;;;7.50;99.90;;;;;;4985431;28;20056;-75
2021/09/20 02:16:32;;;;;;;22.48;13.23;;;7.70;99.90;;;;;;4985505;28;20128;-77
2021/09/20 02:19:00;;;;;;;20.08;12.50;;;7.80;99.90;;;;;;4985843;28;20050;-76
2021/09/20 02:21:27;;;;;;;21.17;12.38;;;7.70;99.90;;;;;;4985060;28;20130;-76
2021/09/20 02:23:53;;;;;;;22.33;12.35;;;7.70;99.90;;;;;;4985875;28;20174;-76
2021/09/20 02:26:20;;;;;;;24.42;12.02;;;7.60;99.90;;;;;;4984886;28;20042;-76
2021/09/20 02:28:47;;;;;;;19.20;10.90;;;7.60;99.90;;;;;;4983902;28;20057;-76
2021/09/20 02:31:15;;;;;;;18.50;11.23;;;7.60;99.90;;;;;;4984117;28;20046;-74
2021/09/20 02:33:42;;;;;;;20.85;10.35;;;7.60;99.90;;;;;;4989038;28;20062;-75
2021/09/20 02:36:09;;;;;;;16.15;10.70;;;7.60;99.90;;;;;;4983317;28;20046;-75
2021/09/20 02:38:36;;;;;;;18.92;10.93;;;7.60;99.90;;;;;;4989841;28;20054;-75
2021/09/20 02:41:04;;;;;;;13.43;9.82;;;7.50;99.90;;;;;;4984261;28;20104;-75
2021/09/20 02:43:31;;;;;;;19.85;11.32;;;7.50;99.90;;;;;;4966640;28;20043;-76
2021/09/20 02:45:58;;;;;;;17.65;10.15;;;7.60;99.90;;;;;;4984027;28;20112;-77
2021/09/20 02:48:25;;;;;;;17.80;10.23;;;7.60;99.90;;;;;;4969149;28;20043;-74
2021/09/20 02:50:53;;;;;;;16.67;10.48;;;7.60;99.90;;;;;;4982907;28;20062;-74
2021/09/20 02:53:20;;;;;;;17.40;11.05;;;7.60;99.90;;;;;;4980034;28;20058;-77
2021/09/20 02:55:47;;;;;;;17.05;9.73;;;7.60;99.90;;;;;;4951083;28;20120;-75
2021/09/20 02:58:14;;;;;;;14.63;10.00;;;7.70;99.90;;;;;;4983811;28;20088;-76
2021/09/20 03:00:40;;;;;;;19.42;10.18;;;7.80;99.90;;;;;;4983393;28;20100;-77
2021/09/20 03:03:07;;;;;;;15.35;10.70;;;7.90;99.90;;;;;;4983470;28;20061;-77
2021/09/20 03:05:35;;;;;;;17.58;10.52;;;8.00;99.90;;;;;;4973573;28;20061;-76
2021/09/20 03:08:04;;;;;;;18.10;10.85;;;8.10;99.90;;;;;;4983848;28;20050;-76
2021/09/20 03:10:32;;;;;;;16.70;10.25;;;8.00;99.90;;;;;;4984032;28;20093;-75
2021/09/20 03:12:59;;;;;;;18.30;11.35;;;8.00;99.90;;;;;;4965601;28;20520;-76
2021/09/20 03:15:26;;;;;;;20.38;11.50;;;8.10;99.90;;;;;;4964638;28;20415;-76
2021/09/20 03:17:53;;;;;;;15.40;10.02;;;8.20;99.90;;;;;;4964354;28;20526;-76
2021/09/20 03:20:20;;;;;;;19.58;10.60;;;8.20;99.90;;;;;;4982126;28;20058;-75
2021/09/20 03:22:47;;;;;;;15.85;9.85;;;8.20;99.90;;;;;;4995358;28;20507;-76
2021/09/20 03:25:14;;;;;;;21.25;10.85;;;8.10;99.90;;;;;;4965775;28;20310;-76
2021/09/20 03:27:41;;;;;;;14.88;10.32;;;8.20;99.90;;;;;;4989035;28;20339;-76
2021/09/20 03:30:10;;;;;;;16.58;11.23;;;8.40;99.90;;;;;;4981848;28;20061;-75
2021/09/20 03:32:36;;;;;;;15.95;10.18;;;8.50;99.90;;;;;;4983987;28;20050;-75
2021/09/20 03:35:06;;;;;;;16.48;9.93;;;8.60;99.90;;;;;;4981392;28;20093;-76
2021/09/20 03:37:33;;;;;;;14.02;9.57;;;8.60;99.90;;;;;;4979540;28;20100;-76
2021/09/20 03:40:00;;;;;;;14.15;8.75;;;8.70;99.90;;;;;;4982883;28;20216;-76
2021/09/20 03:42:27;;;;;;;14.25;9.63;;;8.70;99.90;;;;;;4965171;28;20489;-75
2021/09/20 03:44:53;;;;;;;14.93;9.15;;;8.80;99.90;;;;;;4981698;28;20038;-75
2021/09/20 03:47:20;;;;;;;14.82;9.95;;;8.90;99.90;;;;;;4981863;28;20042;-75
2021/09/20 03:49:47;;;;;;;18.58;9.43;;;9.10;99.90;;;;;;4983680;28;20105;-75
2021/09/20 03:52:14;;;;;;;16.15;9.75;;;9.10;99.90;;;;;;4979397;28;20343;-76
2021/09/20 03:54:41;;;;;;;17.58;8.90;;;9.30;99.90;;;;;;4981430;28;20565;-76
2021/09/20 03:57:08;;;;;;;12.52;8.50;;;9.30;99.90;;;;;;4980979;28;20569;-75
2021/09/20 03:59:35;;;;;;;14.80;8.63;;;9.40;99.90;;;;;;4982425;28;20632;-75
2021/09/20 04:02:02;;;;;;;11.27;8.13;;;9.40;99.90;;;;;;4983088;28;20070;-76
2021/09/20 04:04:29;;;;;;;15.30;9.00;;;9.40;99.90;;;;;;4976103;28;20318;-75
2021/09/20 04:06:56;;;;;;;16.45;9.38;;;9.50;99.90;;;;;;4983746;28;20230;-76
2021/09/20 04:09:23;;;;;;;12.25;7.72;;;9.50;99.90;;;;;;4979678;28;20074;-76
2021/09/20 04:11:50;;;;;;;11.88;9.35;;;9.50;99.90;;;;;;4983318;28;20553;-75
2021/09/20 04:14:17;;;;;;;12.75;8.48;;;9.50;99.90;;;;;;4984337;28;20112;-75
2021/09/20 04:16:43;;;;;;;18.02;9.68;;;9.60;99.90;;;;;;4980576;28;20394;-76
2021/09/20 04:19:10;;;;;;;13.60;8.38;;;9.50;99.90;;;;;;4980939;28;20129;-75
2021/09/20 04:21:40;;;;;;;16.40;8.82;;;9.50;99.90;;;;;;4982027;28;20050;-75
2021/09/20 04:24:06;;;;;;;12.45;7.88;;;9.60;99.90;;;;;;4982524;28;20124;-76
2021/09/20 04:26:33;;;;;;;14.13;8.15;;;9.50;99.90;;;;;;4990845;28;20117;-75
2021/09/20 04:29:00;;;;;;;13.93;9.52;;;9.40;99.90;;;;;;4983178;28;20046;-76
2021/09/20 04:31:27;;;;;;;13.20;8.88;;;9.40;99.90;;;;;;4981941;28;20050;-75
2021/09/20 04:33:53;;;;;;;13.98;8.73;;;9.40;99.90;;;;;;4965726;28;20055;-75
2021/09/20 04:36:20;;;;;;;13.75;8.27;;;9.40;99.90;;;;;;4993440;28;20081;-75
2021/09/20 04:38:47;;;;;;;17.85;9.48;;;9.50;99.90;;;;;;4986963;28;20112;-74
2021/09/20 04:41:14;;;;;;;11.00;8.43;;;9.50;99.90;;;;;;4986669;28;20578;-75
2021/09/20 04:43:40;;;;;;;13.77;8.93;;;9.50;99.90;;;;;;4987538;28;20105;-75
2021/09/20 04:46:07;;;;;;;16.02;9.05;;;9.50;99.90;;;;;;4984634;28;20638;-77
2021/09/20 04:48:34;;;;;;;12.38;9.18;;;9.40;99.90;;;;;;4977039;28;20439;-78
2021/09/20 04:51:01;;;;;;;17.40;9.32;;;9.40;99.90;;;;;;4985123;28;20069;-75
2021/09/20 04:53:28;;;;;;;14.63;9.32;;;9.40;99.90;;;;;;4980179;28;20114;-75
2021/09/20 04:55:54;;;;;;;13.05;8.77;;;9.50;99.90;;;;;;4985878;28;20085;-78
2021/09/20 04:58:21;;;;;;;14.43;9.77;;;9.50;99.90;;;;;;4986763;28;20227;-78
2021/09/20 05:00:48;;;;;;;15.43;9.45;;;9.60;99.90;;;;;;4986666;28;20050;-76
2021/09/20 05:03:15;;;;;;;16.45;9.75;;;9.60;99.90;;;;;;4985650;28;20042;-76
2021/09/20 05:05:42;;;;;;;15.75;9.73;;;9.60;99.90;;;;;;4969133;28;20070;-75
2021/09/20 05:08:08;;;;;;;15.63;9.48;;;9.60;99.90;;;;;;4961865;28;20055;-76
2021/09/20 05:10:35;;;;;;;17.15;10.25;;;9.60;99.90;;;;;;4947548;28;20105;-76
2021/09/20 05:13:02;;;;;;;12.93;9.35;;;9.60;99.90;;;;;;4966384;28;20055;-76
2021/09/20 05:15:29;;;;;;;16.08;9.57;;;9.60;99.90;;;;;;4965728;28;20054;-75
2021/09/20 05:17:56;;;;;;;14.60;9.65;;;9.50;99.90;;;;;;4971383;28;20081;-76
2021/09/20 05:20:23;;;;;;;16.77;10.13;;;9.50;99.90;;;;;;4984518;28;20069;-76
2021/09/20 05:22:50;;;;;;;15.15;8.73;;;9.50;99.90;;;;;;4968375;28;20108;-75
2021/09/20 05:25:17;;;;;;;16.33;10.20;;;9.50;99.90;;;;;;4982940;28;20141;-76
2021/09/20 05:27:45;;;;;;;16.65;10.77;;;9.40;99.90;;;;;;4970745;28;20271;-76
2021/09/20 05:30:13;;;;;;;14.02;10.05;;;9.50;99.90;;;;;;4983467;28;20054;-76
2021/09/20 05:32:40;;;;;;;14.65;10.45;;;9.50;99.90;;;;;;4982007;28;20062;-76
2021/09/20 05:35:08;;;;;;;18.02;10.95;;;9.40;99.90;;;;;;4985305;28;20058;-76
2021/09/20 05:37:36;;;;;;;17.08;11.07;;;9.50;99.90;;;;;;4983896;28;20169;-76
2021/09/20 05:40:04;;;;;;;17.13;10.43;;;9.50;99.90;;;;;;4985183;28;20097;-75
2021/09/20 05:42:31;;;;;;;17.40;10.45;;;9.50;99.90;;;;;;4983961;28;20472;-74
2021/09/20 05:44:58;;;;;;;17.45;11.18;;;9.50;99.90;;;;;;4984623;28;20683;-76
2021/09/20 05:47:25;;;;;;;17.17;11.60;;;9.50;99.90;;;;;;4985009;28;20101;-75
2021/09/20 05:49:51;;;;;;;15.35;10.70;;;9.60;99.90;;;;;;4999906;28;20050;-75
2021/09/20 05:52:18;;;;;;;17.15;10.88;;;9.60;99.90;;;;;;4983626;28;20069;-75
2021/09/20 05:54:45;;;;;;;19.13;11.13;;;9.70;99.90;;;;;;4983288;28;20140;-76
2021/09/20 05:57:12;;;;;;;15.30;10.50;;;9.70;99.90;;;;;;4982011;28;20062;-76
2021/09/20 05:59:39;;;;;;;15.27;10.57;;;9.70;99.90;;;;;;4985285;28;20247;-75
2021/09/20 06:02:06;;;;;;;16.85;10.40;;;9.80;99.90;;;;;;4983602;28;20042;-75
2021/09/20 06:04:33;;;;;;;20.60;12.23;;;9.80;99.90;;;;;;4958588;28;20043;-75
2021/09/20 06:07:00;;;;;;;16.17;10.68;;;9.80;99.90;;;;;;4984604;28;20042;-76
2021/09/20 06:09:27;;;;;;;16.38;10.68;;;9.90;99.90;;;;;;4981363;28;20054;-77
2021/09/20 06:11:53;;;;;;;15.63;10.18;;;9.90;99.90;;;;;;4984506;28;20101;-77
2021/09/20 06:14:21;;;;;;;16.75;10.98;;;9.90;99.90;;;;;;4977282;28;20055;-77
2021/09/20 06:16:47;;;;;;;14.57;9.48;;;9.90;99.90;;;;;;4965628;28;20248;-76
2021/09/20 06:19:14;;;;;;;16.33;9.65;;;9.90;99.90;;;;;;4978935;28;20065;-76
2021/09/20 06:21:41;;;;;;;14.95;10.13;;;10.00;99.90;;;;;;4966886;28;20440;-76
2021/09/20 06:24:08;;;;;;;17.35;9.10;;;10.00;99.90;;;;;;4967810;28;20132;-76
2021/09/20 06:26:34;;;;;;;15.23;10.30;;;10.10;99.90;;;;;;4984459;28;20384;-75
2021/09/20 06:29:01;;;;;;;13.43;8.93;;;10.20;99.90;;;;;;4981888;28;20334;-76
2021/09/20 06:31:29;;;;;;;11.02;8.93;;;10.10;99.90;;;;;;4982758;28;20058;-75
2021/09/20 06:33:56;;;;;;;14.05;8.77;;;10.20;99.90;;;;;;4991904;28;20056;-76
2021/09/20 06:36:22;;;;;;;13.13;8.15;;;10.20;99.90;;;;;;4982855;28;20085;-76
2021/09/20 06:38:49;;;;;;;14.63;9.48;;;10.20;99.90;;;;;;4975835;28;20467;-76
2021/09/20 06:41:16;;;;;;;11.35;8.43;;;10.30;99.90;;;;;;4966285;28;20282;-76
2021/09/20 06:43:43;;;;;;;14.85;8.77;;;10.30;99.90;;;;;;4996998;28;20086;-75
2021/09/20 06:46:09;;;;;;;12.65;8.50;;;10.30;99.90;;;;;;4984833;28;20124;-75
2021/09/20 06:48:38;;;;;;;14.32;8.52;;;10.30;99.90;;;;;;4967177;28;20046;-76
2021/09/20 06:51:05;;;;;;;13.02;8.35;;;10.40;99.90;;;;;;4984171;28;20256;-76
2021/09/20 06:53:32;;;;;;;15.73;8.20;;;10.50;99.90;;;;;;4979799;28;20070;-75
2021/09/20 06:55:58;;;;;;;9.50;7.53;;;10.50;99.90;;;;;;4967303;28;20307;-75
2021/09/20 06:58:25;;;;;;;14.38;8.55;;;10.50;99.90;;;;;;4984813;28;20057;-75
2021/09/20 07:00:52;;;;;;;13.60;7.30;;;10.60;99.90;;;;;;4990485;28;20699;-76
2021/09/20 07:03:19;;;;;;;11.20;8.50;;;10.60;99.90;;;;;;4966551;28;20030;-76
2021/09/20 07:05:46;;;;;;;10.70;7.68;;;10.60;99.90;;;;;;4993993;28;20513;-75
2021/09/20 07:08:13;;;;;;;8.82;6.78;;;10.60;99.90;;;;;;4983910;28;20437;-75
2021/09/20 07:10:39;;;;;;;10.23;7.18;;;10.60;99.90;;;;;;4967001;28;20034;-76
2021/09/20 07:13:09;;;;;;;10.48;7.25;;;10.70;99.90;;;;;;4982717;28;20050;-75
2021/09/20 07:15:36;;;;;;;13.90;7.53;;;10.80;99.90;;;;;;4983182;28;20077;-75
2021/09/20 07:18:07;;;;;;;10.38;7.28;;;10.80;99.90;;;;;;4982626;28;20159;-76
2021/09/20 07:20:34;;;;;;;8.00;6.82;;;10.70;99.90;;;;;;4983077;28;20572;-75
2021/09/20 07:23:01;;;;;;;10.20;7.70;;;10.70;99.90;;;;;;4983814;28;20495;-75
2021/09/20 07:25:28;;;;;;;6.93;6.22;;;10.70;99.90;;;;;;4983282;28;20142;-75
2021/09/20 07:27:55;;;;;;;9.95;6.95;;;10.80;99.90;;;;;;4984452;28;20058;-76
2021/09/20 07:30:22;;;;;;;10.52;7.53;;;10.90;99.90;;;;;;4984174;28;20046;-76
2021/09/20 07:32:51;;;;;;;11.50;7.60;;;11.00;99.90;;;;;;4967726;28;20046;-76
2021/09/20 07:35:18;;;;;;;9.43;7.20;;;11.00;99.90;;;;;;4972920;28;20097;-76
2021/09/20 07:37:48;;;;;;;15.13;7.43;;;11.20;99.90;;;;;;4983445;28;20112;-73
2021/09/20 07:40:15;;;;;;;8.85;7.75;;;11.50;99.90;;;;;;4983064;28;20050;-72
2021/09/20 07:42:43;;;;;;;10.35;7.80;;;11.30;99.90;;;;;;4981368;28;20117;-72
2021/09/20 07:45:11;;;;;;;9.65;7.75;;;11.30;99.90;;;;;;4984545;28;20112;-72
2021/09/20 07:47:38;;;;;;;8.43;6.95;;;11.40;99.90;;;;;;4994326;28;20050;-72
2021/09/20 07:50:06;;;;;;;8.57;7.60;;;11.40;99.90;;;;;;4981181;28;20054;-72
2021/09/20 07:52:33;;;;;;;9.63;7.40;;;11.50;99.90;;;;;;4978896;28;20459;-72
2021/09/20 07:55:01;;;;;;;8.77;8.02;;;11.60;99.90;;;;;;4983550;28;20051;-72
2021/09/20 07:57:27;;;;;;;9.95;9.05;;;11.80;99.90;;;;;;4982935;28;20235;-71
2021/09/20 07:59:54;;;;;;;9.32;8.43;;;11.60;99.90;;;;;;4999584;28;20435;-72
2021/09/20 08:02:21;;;;;;;8.65;7.85;;;11.50;99.90;;;;;;4966881;28;20100;-72
2021/09/20 08:04:48;;;;;;;9.57;8.73;;;11.60;99.90;;;;;;4982427;28;20145;-72
2021/09/20 08:07:15;;;;;;;8.70;7.90;;;11.60;99.90;;;;;;4984193;28;20095;-72
2021/09/20 08:09:42;;;;;;;8.95;8.35;;;11.60;99.90;;;;;;4994892;28;20104;-72
2021/09/20 08:12:09;;;;;;;9.18;8.38;;;11.70;99.90;;;;;;4983993;28;20066;-72
2021/09/20 08:14:35;;;;;;;10.32;9.20;;;11.80;99.90;;;;;;4988511;28;20397;-72
2021/09/20 08:17:03;;;;;;;9.70;9.00;;;11.70;99.90;;;;;;5002728;28;20109;-72
2021/09/20 08:19:29;;;;;;;9.45;8.75;;;11.70;99.90;;;;;;4986032;28;20101;-71
2021/09/20 08:21:56;;;;;;;9.63;8.73;;;11.70;99.90;;;;;;4987554;28;20254;-72
2021/09/20 08:24:23;;;;;;;10.18;8.48;;;11.80;99.90;;;;;;4986963;28;20066;-72
2021/09/20 08:26:49;;;;;;;9.57;8.88;;;11.80;99.90;;;;;;4987504;28;20054;-73
2021/09/20 08:29:16;;;;;;;10.77;9.70;;;11.80;99.90;;;;;;4986815;28;20054;-73
2021/09/20 08:31:43;;;;;;;10.68;9.85;;;11.80;99.90;;;;;;4987345;28;20557;-74
2021/09/20 08:34:10;;;;;;;10.90;10.10;;;11.90;99.90;;;;;;5001946;28;20373;-72
2021/09/20 08:36:37;;;;;;;10.63;9.90;;;11.90;99.90;;;;;;4988575;28;20734;-72
2021/09/20 08:39:04;;;;;;;10.75;9.85;;;11.90;99.90;;;;;;4985696;28;20120;-72
2021/09/20 08:41:31;;;;;;;9.95;9.05;;;12.00;99.90;;;;;;5000418;28;20043;-72
2021/09/20 08:43:58;;;;;;;10.07;9.48;;;12.00;99.90;;;;;;4985883;28;20085;-72
2021/09/20 08:46:25;;;;;;;10.52;9.68;;;12.10;99.90;;;;;;4985797;28;20085;-72
2021/09/20 08:48:56;;;;;;;11.18;10.35;;;12.20;99.90;;;;;;4985378;28;20145;-72
2021/09/20 08:51:22;;;;;;;10.20;9.50;;;12.20;99.90;;;;;;5001022;28;20057;-72
2021/09/20 08:53:50;;;;;;;11.20;10.25;;;12.30;99.90;;;;;;4981546;28;20085;-72
2021/09/20 08:56:17;;;;;;;12.10;10.98;;;12.30;99.90;;;;;;4982782;28;20073;-71
2021/09/20 08:58:44;;;;;;;10.68;9.93;;;12.40;99.90;;;;;;4987699;28;20101;-72
2021/09/20 09:01:12;;;;;;;12.02;11.07;;;12.40;99.90;;;;;;4987615;28;20084;-72
2021/09/20 09:03:39;;;;;;;11.60;10.70;;;12.30;99.90;;;;;;4987442;28;20137;-72
2021/09/20 09:06:06;;;;;;;9.65;9.13;;;12.50;99.90;;;;;;4985112;28;20058;-72
2021/09/20 09:08:36;;;;;;;11.43;10.60;;;12.50;99.90;;;;;;4987387;28;20061;-72
2021/09/20 09:11:12;;;;;;;11.10;10.30;;;12.60;99.90;;;;;;4985427;28;20097;-71
2021/09/20 09:13:45;;;;;;;11.48;10.68;;;12.70;99.90;;;;;;4986236;28;20399;-72
2021/09/20 09:16:22;;;;;;;12.30;11.18;;;12.80;99.90;;;;;;4985638;28;20109;-72
2021/09/20 09:19:08;;;;;;;12.02;11.43;;;13.10;99.90;;;;;;4986385;28;20089;-72
2021/09/20 09:21:39;;;;;;;11.55;10.95;;;13.00;99.90;;;;;;4985488;28;20051;-71
2021/09/20 09:24:08;;;;;;;12.68;11.77;;;13.20;99.90;;;;;;4985819;28;20416;-72
2021/09/20 09:26:36;;;;;;;11.52;10.93;;;13.00;99.90;;;;;;4991596;28;20054;-72
2021/09/20 09:29:12;;;;;;;12.60;12.00;;;12.80;99.90;;;;;;4984903;28;20108;-72
2021/09/20 09:31:41;;;;;;;12.40;11.48;;;12.90;99.90;;;;;;4986921;28;20050;-72
2021/09/20 09:34:15;;;;;;;12.15;11.35;;;12.90;99.90;;;;;;4985592;28;20112;-71
2021/09/20 09:36:42;;;;;;;12.52;11.93;;;12.90;99.90;;;;;;4984278;28;20249;-71
2021/09/20 09:39:10;;;;;;;12.25;11.55;;;12.80;99.90;;;;;;4986539;28;20059;-71
2021/09/20 09:41:40;;;;;;;12.32;11.63;;;12.70;99.90;;;;;;4984868;28;20054;-71
2021/09/20 09:44:13;;;;;;;12.25;11.45;;;12.70;99.90;;;;;;4967219;28;20054;-72
2021/09/20 09:46:45;;;;;;;12.13;11.32;;;12.80;99.90;;;;;;4983849;28;20407;-71
2021/09/20 09:49:20;;;;;;;12.77;11.88;;;12.90;99.90;;;;;;4985699;28;20054;-73
2021/09/20 09:52:02;;;;;;;12.68;11.98;;;13.20;99.90;;;;;;4985795;28;20443;-73
2021/09/20 09:54:29;;;;;;;13.02;12.30;;;13.50;99.90;;;;;;4982852;28;20511;-73
2021/09/20 09:57:21;;;;;;;13.07;12.38;;;13.70;99.90;;;;;;4999595;28;20351;-73
2021/09/20 10:00:13;;;;;;;13.07;11.82;;;13.60;99.90;;;;;;4985716;28;20054;-73
2021/09/20 10:02:45;;;;;;;13.80;13.00;;;13.70;99.90;;;;;;4985177;28;20058;-73
2021/09/20 10:05:16;;;;;;;13.40;12.70;;;13.60;99.90;;;;;;4985930;28;20544;-74
2021/09/20 10:07:46;;;;;;;13.10;12.38;;;13.50;99.90;;;;;;4985318;28;20046;-73
2021/09/20 10:10:21;;;;;;;12.90;12.18;;;13.60;99.90;;;;;;4983225;28;20065;-74
2021/09/20 10:12:51;;;;;;;13.07;12.38;;;13.50;99.90;;;;;;4985413;28;20073;-73
2021/09/20 10:15:21;;;;;;;12.93;12.13;;;13.40;99.90;;;;;;5000397;28;20091;-73
2021/09/20 10:17:48;;;;;;;11.90;11.20;;;13.40;99.90;;;;;;4984623;28;20050;-73
2021/09/20 10:20:20;;;;;;;12.63;11.95;;;13.50;99.90;;;;;;4967823;28;20124;-74
2021/09/20 10:22:48;;;;;;;14.00;13.23;;;13.30;99.90;;;;;;4984762;28;20055;-75
2021/09/20 10:25:17;;;;;;;13.20;12.13;;;13.60;99.90;;;;;;4984381;28;20046;-72
2021/09/20 10:27:45;;;;;;;12.15;11.55;;;13.70;99.90;;;;;;4985008;28;20221;-72
2021/09/20 10:30:17;;;;;;;12.07;11.30;;;13.80;99.90;;;;;;4983434;28;20133;-69
2021/09/20 10:33:02;;;;;;;12.60;11.70;;;14.00;99.90;;;;;;4986929;28;20065;-70
2021/09/20 10:35:32;;;;;;;12.20;11.50;;;13.60;99.90;;;;;;4978707;28;20646;-71
2021/09/20 10:38:21;;;;;;;12.88;12.07;;;13.50;99.90;;;;;;4967267;28;20062;-71
2021/09/20 10:41:10;;;;;;;12.50;11.73;;;13.50;99.90;;;;;;4985979;28;20050;-71
2021/09/20 10:43:39;;;;;;;13.25;12.30;;;13.50;99.90;;;;;;4984384;28;20836;-71
2021/09/20 10:46:20;;;;;;;13.77;12.88;;;13.60;99.90;;;;;;4984733;28;20057;-71
2021/09/20 10:48:54;;;;;;;13.25;12.55;;;13.40;99.90;;;;;;4984985;28;20490;-71
2021/09/20 10:51:29;;;;;;;12.40;11.77;;;13.30;99.90;;;;;;4982307;28;20074;-73
2021/09/20 10:54:22;;;;;;;13.20;12.32;;;13.20;99.90;;;;;;4981675;28;20690;-70
2021/09/20 10:57:16;;;;;;;13.50;12.50;;;13.20;99.90;;;;;;4981130;28;20617;-69
2021/09/20 10:59:43;;;;;;;12.57;11.90;;;13.20;99.90;;;;;;4984099;28;20059;-68
2021/09/20 11:02:32;;;;;;;12.82;12.10;;;13.30;99.90;;;;;;4983675;28;20043;-72
2021/09/20 11:05:10;;;;;;;12.52;11.93;;;13.20;99.90;;;;;;4982913;28;20402;-70
2021/09/20 11:07:49;;;;;;;12.43;11.73;;;13.20;99.90;;;;;;4983392;28;20050;-71
2021/09/20 11:10:17;;;;;;;11.93;11.18;;;13.20;99.90;;;;;;4981212;28;20077;-71
2021/09/20 11:12:55;;;;;;;12.38;11.68;;;13.30;99.90;;;;;;4977799;28;20400;-70
2021/09/20 11:15:22;;;;;;;12.63;11.90;;;13.50;99.90;;;;;;4984124;28;20260;-71
2021/09/20 11:17:51;;;;;;;14.02;12.90;;;13.60;99.90;;;;;;4984342;28;20054;-71
2021/09/20 11:20:20;;;;;;;12.55;11.85;;;13.70;99.90;;;;;;4982462;28;20054;-71
2021/09/20 11:22:48;;;;;;;12.27;11.65;;;13.50;99.90;;;;;;4999283;28;20356;-71
2021/09/20 11:25:16;;;;;;;12.48;11.65;;;13.50;99.90;;;;;;4983977;28;20080;-69
2021/09/20 11:27:47;;;;;;;12.63;11.82;;;13.60;99.90;;;;;;4984737;28;20054;-71
2021/09/20 11:30:23;;;;;;;14.10;13.32;;;13.60;99.90;;;;;;4983374;28;20140;-71
2021/09/20 11:32:55;;;;;;;14.63;13.57;;;13.50;99.90;;;;;;4985633;28;20582;-75
2021/09/20 11:35:24;;;;;;;14.82;13.88;;;13.40;99.90;;;;;;4976599;28;20684;-74
2021/09/20 11:37:53;;;;;;;14.50;13.30;;;13.40;99.90;;;;;;4985503;28;20081;-73
2021/09/20 11:40:22;;;;;;;13.80;13.05;;;13.50;99.90;;;;;;4984662;28;20570;-73
2021/09/20 11:42:52;;;;;;;14.13;13.02;;;13.70;99.90;;;;;;4967695;28;20128;-74
2021/09/20 11:45:21;;;;;;;13.30;12.70;;;13.70;99.90;;;;;;4966370;28;20058;-72
2021/09/20 11:47:53;;;;;;;13.60;12.85;;;13.60;99.90;;;;;;4998820;28;20530;-72
2021/09/20 11:50:22;;;;;;;15.85;14.70;;;13.60;99.90;;;;;;4982605;28;20466;-73
2021/09/20 11:52:52;;;;;;;17.52;16.20;;;13.40;99.90;;;;;;4980934;28;20718;-71
2021/09/20 11:55:18;;;;;;;15.90;14.75;;;13.30;99.90;;;;;;4984000;28;20073;-74
2021/09/20 11:57:48;;;;;;;15.43;14.30;;;13.30;99.90;;;;;;4984349;28;20577;-71
2021/09/20 12:00:16;;;;;;;14.68;13.52;;;13.50;99.90;;;;;;4983773;28;20535;-72
2021/09/20 12:02:46;;;;;;;13.73;12.73;;;13.70;99.90;;;;;;4985386;28;20574;-71
2021/09/20 12:05:19;;;;;;;13.43;12.70;;;13.80;99.90;;;;;;4989544;28;20352;-72
2021/09/20 12:07:53;;;;;;;13.40;12.70;;;13.70;99.90;;;;;;4983952;28;20054;-74
2021/09/20 12:10:26;;;;;;;13.13;12.48;;;13.70;99.90;;;;;;4998665;28;20437;-74
2021/09/20 12:12:56;;;;;;;13.98;13.07;;;13.60;99.90;;;;;;4984876;28;20059;-74
2021/09/20 12:15:29;;;;;;;14.88;13.45;;;13.90;99.90;;;;;;4983878;28;20112;-72
2021/09/20 12:18:00;;;;;;;15.35;14.50;;;13.80;99.90;;;;;;4984474;28;20161;-75
2021/09/20 12:20:39;;;;;;;13.10;12.40;;;13.60;99.90;;;;;;4983855;28;20050;-72
2021/09/20 12:23:20;;;;;;;14.07;13.15;;;13.80;99.90;;;;;;4983829;28;20113;-72
2021/09/20 12:25:49;;;;;;;18.58;17.38;;;13.80;99.90;;;;;;4982228;28;20485;-72
2021/09/20 12:28:23;;;;;;;13.80;12.90;;;13.50;99.90;;;;;;4967045;28;20309;-72
2021/09/20 12:31:10;;;;;;;20.00;18.70;;;13.10;99.90;;;;;;4982047;28;20070;-73
2021/09/20 12:33:59;;;;;;;16.83;15.82;;;13.20;99.90;;;;;;4984079;28;20343;-74
2021/09/20 12:36:32;;;;;;;13.07;12.27;;;13.60;99.90;;;;;;4986330;28;20073;-73
2021/09/20 12:39:06;;;;;;;13.23;12.48;;;13.40;99.90;;;;;;4985159;28;20117;-73
2021/09/20 12:41:37;;;;;;;13.25;12.55;;;13.50;99.90;;;;;;4984227;28;20116;-74
2021/09/20 12:44:05;;;;;;;13.77;12.90;;;13.50;99.90;;;;;;4984640;28;20058;-74